Time;durP1;ratioP1;P1;durP2;ratioP2;P2;SDS_P1;SDS_P2;PMS_P1;PMS_P2;Temp;Humidity;BMP_temperature;BMP_pressure;BME280_temperature;BME280_humidity;BME280_pressure;Samples;Min_cycle;Max_cycle;Signal;HPM_P1;HPM_P2
2021/01/24 00:08:50;;;;;;;21.23;15.53;;;;;;;0.61;80.09;97605.70;493452;1128;114254;-66
2021/01/24 00:18:54;;;;;;;26.43;18.40;;;;;;;0.60;80.87;97606.63;492491;1129;114310;-66
2021/01/24 00:28:58;;;;;;;30.07;20.23;;;;;;;0.62;81.06;97599.63;492145;1126;115112;-63
2021/01/24 00:39:03;;;;;;;36.43;22.63;;;;;;;0.62;81.58;97591.03;494743;1129;114643;-70
2021/01/24 00:49:07;;;;;;;40.90;24.45;;;;;;;0.59;81.56;97601.53;492152;1129;115298;-66
2021/01/24 00:59:11;;;;;;;33.63;23.33;;;;;;;0.47;81.24;97592.73;491986;1129;114886;-68
2021/01/24 01:09:15;;;;;;;38.00;23.27;;;;;;;0.44;81.60;97587.70;492088;1129;114551;-67
2021/01/24 01:19:19;;;;;;;28.63;21.20;;;;;;;0.34;81.63;97603.70;492432;1129;114130;-61
2021/01/24 01:29:23;;;;;;;28.50;16.73;;;;;;;0.30;82.46;97578.98;492785;1129;114165;-62
2021/01/24 01:39:27;;;;;;;24.07;17.53;;;;;;;0.38;82.65;97556.16;492556;1130;114111;-64
2021/01/24 01:49:31;;;;;;;24.90;15.73;;;;;;;0.38;82.16;97563.06;492379;1129;114130;-65
2021/01/24 01:59:36;;;;;;;24.73;16.00;;;;;;;0.45;82.56;97528.25;492400;1129;115001;-61
2021/01/24 02:09:45;;;;;;;18.07;14.40;;;;;;;0.44;82.12;97536.91;493046;1128;114678;-63
2021/01/24 02:20:07;;;;;;;19.07;13.00;;;;;;;0.43;82.42;97524.08;492631;1129;114981;-62
2021/01/24 02:30:22;;;;;;;18.10;12.87;;;;;;;0.41;82.52;97542.25;492563;1129;114236;-65
2021/01/24 02:40:27;;;;;;;23.43;14.77;;;;;;;0.41;82.38;97531.92;492424;1129;114868;-64
2021/01/24 02:50:32;;;;;;;26.13;16.00;;;;;;;0.42;83.01;97520.68;492418;1128;115127;-66
2021/01/24 03:00:36;;;;;;;24.60;14.73;;;;;;;0.43;82.95;97498.25;492483;1128;114660;-65
2021/01/24 03:10:42;;;;;;;19.53;14.67;;;;;;;0.24;82.61;97466.56;493084;1131;114747;-65
2021/01/24 03:20:48;;;;;;;19.30;12.90;;;;;;;-0.01;83.04;97467.92;492752;1129;114756;-65
2021/01/24 03:30:52;;;;;;;21.27;14.18;;;;;;;0.02;83.14;97477.25;492984;1128;114914;-65
2021/01/24 03:40:57;;;;;;;23.37;15.00;;;;;;;0.08;83.64;97451.09;493533;1128;114479;-66
2021/01/24 03:51:00;;;;;;;20.40;14.80;;;;;;;0.16;83.53;97445.50;492875;1128;114259;-64
2021/01/24 04:01:04;;;;;;;20.63;14.03;;;;;;;0.19;82.82;97452.25;492934;1128;114549;-66
2021/01/24 04:11:08;;;;;;;23.93;15.80;;;;;;;0.19;83.56;97450.52;492671;1128;114225;-67
2021/01/24 04:21:12;;;;;;;24.10;16.90;;;;;;;0.25;83.89;97462.23;492870;1128;114246;-66
2021/01/24 04:31:17;;;;;;;24.37;16.27;;;;;;;0.31;83.88;97432.67;492857;1128;115125;-67
2021/01/24 04:41:21;;;;;;;29.97;17.77;;;;;;;0.32;83.33;97411.91;492766;1128;115031;-66
2021/01/24 04:51:25;;;;;;;28.90;18.53;;;;;;;0.31;83.41;97419.76;493056;1129;114308;-65
2021/01/24 05:01:30;;;;;;;25.77;16.30;;;;;;;0.22;83.11;97437.42;492883;1129;114165;-65
2021/01/24 05:11:34;;;;;;;29.27;19.63;;;;;;;0.20;83.68;97451.33;492952;1129;114497;-66
2021/01/24 05:21:39;;;;;;;35.90;21.70;;;;;;;0.28;84.14;97449.97;492914;1128;114921;-67
2021/01/24 05:31:46;;;;;;;38.40;24.10;;;;;;;0.37;84.23;97437.47;493517;1129;115000;-66
2021/01/24 05:41:52;;;;;;;30.95;22.05;;;;;;;0.40;83.71;97432.12;493175;1128;114143;-66
2021/01/24 05:52:06;;;;;;;31.20;21.90;;;;;;;0.44;84.02;97430.20;492939;1128;114634;-66
2021/01/24 06:02:10;;;;;;;32.40;20.40;;;;;;;0.46;84.16;97429.20;492834;1129;115087;-65
2021/01/24 06:12:16;;;;;;;35.87;22.83;;;;;;;0.44;83.55;97438.79;492380;1128;114358;-65
2021/01/24 06:22:24;;;;;;;34.83;21.83;;;;;;;0.41;84.11;97437.20;492428;1128;114528;-66
2021/01/24 06:32:30;;;;;;;31.03;17.07;;;;;;;0.45;83.63;97442.19;492739;1129;114167;-65
2021/01/24 06:42:47;;;;;;;23.90;17.80;;;;;;;0.52;83.00;97435.77;492415;1128;114844;-65
2021/01/24 06:53:05;;;;;;;27.13;17.27;;;;;;;0.54;83.68;97414.09;493608;1129;114426;-67
2021/01/24 07:03:19;;;;;;;38.17;22.53;;;;;;;0.55;83.58;97432.99;493092;1129;114615;-64
2021/01/24 07:13:36;;;;;;;26.40;17.50;;;;;;;0.64;84.09;97418.73;492877;1128;114286;-66
2021/01/24 07:23:41;;;;;;;21.40;15.13;;;;;;;0.65;83.57;97395.37;493083;1128;114391;-65
2021/01/24 07:33:44;;;;;;;29.23;18.43;;;;;;;0.62;83.64;97398.15;492925;1128;115470;-66
2021/01/24 07:43:48;;;;;;;28.10;14.75;;;;;;;0.61;83.49;97386.16;493071;1128;114231;-67
2021/01/24 07:53:52;;;;;;;21.43;14.23;;;;;;;0.66;83.39;97389.29;492895;1128;114220;-66
2021/01/24 08:03:59;;;;;;;26.77;17.67;;;;;;;0.64;83.34;97383.39;492689;1129;114233;-66
2021/01/24 08:14:04;;;;;;;25.60;16.70;;;;;;;0.68;83.35;97379.69;493187;1128;115108;-63
2021/01/24 08:24:10;;;;;;;24.30;15.77;;;;;;;0.70;83.87;97382.19;492730;1129;114190;-65
2021/01/24 08:34:16;;;;;;;23.27;16.50;;;;;;;0.76;83.76;97389.59;492599;1128;114288;-64
2021/01/24 08:44:21;;;;;;;26.03;17.30;;;;;;;0.81;82.68;97360.91;492262;1129;114682;-65
2021/01/24 08:54:28;;;;;;;27.60;17.80;;;;;;;0.90;83.75;97375.02;492862;1128;114458;-66
2021/01/24 09:04:34;;;;;;;26.43;17.53;;;;;;;0.87;83.06;97359.70;492247;1128;115158;-66
2021/01/24 09:14:38;;;;;;;25.57;17.40;;;;;;;0.87;83.03;97355.34;492752;1126;114116;-65
2021/01/24 09:24:42;;;;;;;23.20;15.20;;;;;;;0.83;83.23;97348.72;492670;1129;114286;-66
2021/01/24 09:34:46;;;;;;;33.60;21.10;;;;;;;0.82;83.51;97353.04;493119;1128;114146;-65
2021/01/24 09:44:51;;;;;;;27.00;18.80;;;;;;;0.82;83.11;97422.80;492391;1129;114179;-65
2021/01/24 09:54:55;;;;;;;30.33;19.73;;;;;;;0.51;83.21;97401.34;492853;1129;114206;-66
2021/01/24 10:04:59;;;;;;;27.50;18.20;;;;;;;0.35;83.79;97369.59;492817;1128;114232;-66
2021/01/24 10:15:04;;;;;;;30.67;20.27;;;;;;;0.41;83.57;97356.34;493211;1129;114221;-66
2021/01/24 10:25:10;;;;;;;28.53;18.27;;;;;;;0.54;83.51;97364.19;493021;1128;114807;-66
2021/01/24 10:35:14;;;;;;;25.87;17.97;;;;;;;0.70;83.25;97356.36;492981;1128;114560;-66
2021/01/24 10:45:18;;;;;;;29.93;19.83;;;;;;;0.64;83.77;97357.55;493390;1129;114881;-65
2021/01/24 10:55:24;;;;;;;28.87;19.60;;;;;;;0.73;83.75;97352.77;493065;1128;114625;-66
2021/01/24 11:05:35;;;;;;;28.60;19.37;;;;;;;0.82;84.37;97354.81;492753;1128;115121;-66
2021/01/24 11:15:39;;;;;;;28.40;19.47;;;;;;;0.82;83.51;97357.39;492790;1127;115037;-65
2021/01/24 11:25:47;;;;;;;31.02;20.00;;;;;;;0.91;83.88;97361.17;487360;1128;10001853;-65
2021/01/24 11:35:51;;;;;;;30.93;21.60;;;;;;;1.05;83.64;97357.76;492434;1129;114522;-69
2021/01/24 11:45:55;;;;;;;40.80;25.90;;;;;;;1.11;83.01;97363.37;492553;1128;114511;-70
2021/01/24 11:56:00;;;;;;;41.57;31.50;;;;;;;1.10;83.65;97371.22;492976;1128;114462;-71
2021/01/24 12:06:04;;;;;;;36.90;24.13;;;;;;;0.97;83.14;97361.63;492440;1129;115103;-67
2021/01/24 12:16:08;;;;;;;39.83;26.33;;;;;;;0.83;83.15;97362.45;492534;1128;114598;-68
2021/01/24 12:26:13;;;;;;;46.43;30.13;;;;;;;0.82;83.76;97360.80;492953;1128;114255;-70
2021/01/24 12:36:17;;;;;;;49.53;31.27;;;;;;;1.08;83.22;97352.39;493429;1127;114165;-68
2021/01/24 12:46:21;;;;;;;37.77;25.77;;;;;;;1.24;83.41;97353.09;493361;1128;114195;-70
2021/01/24 12:56:25;;;;;;;36.10;22.93;;;;;;;1.24;83.64;97363.44;493110;1128;114606;-72
2021/01/24 13:06:30;;;;;;;36.85;24.40;;;;;;;1.22;83.14;97367.88;492653;1128;114086;-71
2021/01/24 13:16:34;;;;;;;37.47;21.37;;;;;;;1.44;83.86;97370.87;493458;1128;114156;-70
2021/01/24 13:26:39;;;;;;;30.53;21.57;;;;;;;1.40;83.59;97388.36;493812;1128;115391;-71
2021/01/24 13:36:43;;;;;;;34.50;19.95;;;;;;;1.32;83.81;97391.39;492675;1128;114152;-72
2021/01/24 13:46:50;;;;;;;32.73;18.53;;;;;;;1.30;83.35;97407.95;492869;1128;114549;-71
2021/01/24 13:56:54;;;;;;;45.80;23.20;;;;;;;1.19;83.58;97424.95;493017;1128;114106;-71
2021/01/24 14:06:58;;;;;;;46.63;24.57;;;;;;;0.77;82.85;97444.66;492333;1128;114335;-71
2021/01/24 14:17:03;;;;;;;47.40;26.97;;;;;;;0.54;84.10;97455.42;492580;1128;114151;-70
2021/01/24 14:27:08;;;;;;;52.57;27.40;;;;;;;0.45;84.33;97462.84;492709;1128;114179;-70
2021/01/24 14:37:12;;;;;;;47.63;27.57;;;;;;;0.41;84.60;97457.05;492609;1128;114459;-70
2021/01/24 14:47:16;;;;;;;41.60;24.90;;;;;;;0.39;84.18;97461.44;492693;1128;114123;-70
2021/01/24 14:57:20;;;;;;;44.93;24.10;;;;;;;0.31;84.02;97461.88;493034;1128;114574;-71
2021/01/24 15:07:24;;;;;;;44.40;23.50;;;;;;;0.25;84.69;97472.56;492280;1128;114662;-71
2021/01/24 15:17:28;;;;;;;45.97;26.93;;;;;;;0.19;84.59;97484.06;492830;1128;114697;-72
2021/01/24 15:27:34;;;;;;;39.43;24.83;;;;;;;0.12;84.90;97505.96;492715;1126;114792;-70
2021/01/24 15:37:49;;;;;;;37.43;21.77;;;;;;;0.03;84.50;97512.46;492652;1128;114815;-72
2021/01/24 15:47:55;;;;;;;39.27;25.27;;;;;;;-0.05;85.16;97505.14;492664;1128;114873;-70
2021/01/24 15:58:00;;;;;;;37.80;23.12;;;;;;;-0.03;85.33;97500.73;493415;1128;114415;-71
2021/01/24 16:08:05;;;;;;;42.80;26.70;;;;;;;0.00;85.37;97520.38;493384;1128;114320;-69
2021/01/24 16:18:09;;;;;;;38.93;23.20;;;;;;;-0.01;84.65;97540.17;493272;1128;114501;-70
2021/01/24 16:28:13;;;;;;;38.17;23.30;;;;;;;0.02;84.40;97533.17;492793;1128;114352;-71
2021/01/24 16:38:18;;;;;;;44.73;26.77;;;;;;;0.01;84.54;97532.36;492006;1129;114610;-71
2021/01/24 16:48:22;;;;;;;39.83;23.77;;;;;;;-0.02;84.44;97528.19;492406;1128;114231;-72
2021/01/24 16:58:26;;;;;;;43.60;25.80;;;;;;;0.05;84.59;97527.84;492428;1128;114834;-71
2021/01/24 17:08:30;;;;;;;48.97;27.90;;;;;;;0.04;84.50;97536.50;492389;1128;114119;-70
2021/01/24 17:18:35;;;;;;;44.53;28.53;;;;;;;0.01;85.03;97528.94;492565;1128;114143;-71
2021/01/24 17:28:39;;;;;;;50.07;29.33;;;;;;;-0.02;84.53;97524.77;492378;1128;114410;-71
2021/01/24 17:38:44;;;;;;;59.57;33.57;;;;;;;-0.02;85.07;97527.34;492494;1128;114763;-70
2021/01/24 17:48:48;;;;;;;52.63;30.07;;;;;;;-0.03;84.86;97526.53;492735;1128;115156;-69
2021/01/24 17:58:52;;;;;;;43.80;26.57;;;;;;;-0.03;85.09;97497.30;492576;1129;114844;-70
2021/01/24 18:08:56;;;;;;;36.50;23.03;;;;;;;-0.04;85.05;97487.90;492601;1129;114467;-74
2021/01/24 18:19:01;;;;;;;36.10;23.40;;;;;;;-0.08;85.20;97496.73;492379;1128;114366;-73
2021/01/24 18:29:10;;;;;;;38.80;22.30;;;;;;;-0.10;85.09;97504.55;492994;1128;115132;-74
2021/01/24 18:39:14;;;;;;;38.23;23.07;;;;;;;-0.15;85.27;97507.37;492552;1128;115108;-72
2021/01/24 18:49:18;;;;;;;35.17;22.73;;;;;;;-0.18;84.95;97502.38;493289;1128;115005;-73
2021/01/24 18:59:25;;;;;;;38.27;23.70;;;;;;;-0.18;84.81;97499.80;492849;1128;114270;-74
2021/01/24 19:09:29;;;;;;;42.60;25.70;;;;;;;-0.17;84.98;97501.47;492491;1128;168981;-66
2021/01/24 19:19:35;;;;;;;44.00;26.30;;;;;;;-0.12;84.69;97502.95;492644;1128;114399;-68
2021/01/24 19:29:39;;;;;;;46.70;26.60;;;;;;;-0.14;85.42;97503.05;492507;1128;114421;-66
2021/01/24 19:39:43;;;;;;;42.25;25.50;;;;;;;-0.16;85.06;97508.28;492902;1129;114800;-66
2021/01/24 19:49:47;;;;;;;38.93;23.67;;;;;;;-0.31;84.84;97509.93;492619;1128;114875;-67
2021/01/24 19:59:53;;;;;;;37.27;22.03;;;;;;;-0.53;85.76;97505.09;492426;1128;114812;-68
2021/01/24 20:09:57;;;;;;;38.90;23.60;;;;;;;-0.53;86.17;97515.41;492967;1128;114451;-68
2021/01/24 20:20:03;;;;;;;38.70;21.40;;;;;;;-0.54;86.10;97516.31;492339;1128;115413;-70
2021/01/24 20:30:10;;;;;;;42.27;23.50;;;;;;;-0.75;86.05;97515.66;492589;1129;114441;-65
2021/01/24 20:40:16;;;;;;;27.83;16.23;;;;;;;-0.95;86.05;97514.10;492532;1129;114340;-63
2021/01/24 20:50:21;;;;;;;25.80;16.10;;;;;;;-1.04;85.39;97517.98;492442;1128;115977;-63
2021/01/24 21:00:25;;;;;;;27.23;16.63;;;;;;;-1.14;85.99;97523.59;492352;1128;115453;-63
2021/01/24 21:10:30;;;;;;;22.67;13.10;;;;;;;-1.20;85.92;97531.64;492392;1128;114427;-63
2021/01/24 21:20:34;;;;;;;24.00;14.77;;;;;;;-1.25;85.77;97530.19;492225;1129;114625;-65
2021/01/24 21:30:38;;;;;;;21.70;12.20;;;;;;;-1.16;85.54;97540.02;492664;1128;114343;-64
2021/01/24 21:40:42;;;;;;;19.00;12.30;;;;;;;-1.06;85.28;97538.66;492778;1128;115686;-60
2021/01/24 21:50:47;;;;;;;20.85;11.40;;;;;;;-1.05;84.83;97549.81;492379;1127;114586;-62
2021/01/24 22:00:52;;;;;;;18.87;12.83;;;;;;;-0.94;85.14;97550.11;492486;1129;115040;-66
2021/01/24 22:10:56;;;;;;;23.35;13.70;;;;;;;-0.82;85.00;97548.64;492302;1128;114623;-62
2021/01/24 22:20:59;;;;;;;19.47;12.37;;;;;;;-0.64;85.60;97556.38;492775;1128;114740;-66
2021/01/24 22:31:04;;;;;;;18.03;12.40;;;;;;;-0.51;85.19;97556.59;492737;1128;114380;-68
2021/01/24 22:41:08;;;;;;;20.07;10.40;;;;;;;-0.43;84.33;97551.84;492183;1129;115777;-62
2021/01/24 22:51:12;;;;;;;14.83;8.97;;;;;;;-0.38;84.26;97546.45;494132;1128;114655;-64
2021/01/24 23:01:16;;;;;;;12.67;8.20;;;;;;;-0.34;84.31;97553.13;493067;1129;114253;-62
2021/01/24 23:11:20;;;;;;;10.73;7.50;;;;;;;-0.28;84.58;97550.22;492886;1129;114139;-64
2021/01/24 23:21:24;;;;;;;12.03;7.60;;;;;;;-0.25;84.15;97549.23;492897;1128;115030;-63
2021/01/24 23:31:28;;;;;;;11.30;8.10;;;;;;;-0.29;84.44;97551.12;492958;1128;114714;-63
2021/01/24 23:41:33;;;;;;;11.47;7.17;;;;;;;-0.33;84.54;97557.38;492841;1129;114659;-66
2021/01/24 23:51:37;;;;;;;11.93;8.00;;;;;;;-0.34;84.51;97569.42;493184;1129;114699;-64
